Terminal Aerodrome Forecast
Issued by NWS Paducah, KY

Home | Current Version | Previous Version | Text Only | Print | Product List | Glossary On
Versions: 1 2 3 4 5 6 7 8 9 10 11 12 13 14 15 16 17 18
000
FTUS43 KPAH 200520
TAFPAH
TAF
KPAH 200520Z 2006/2106 04004KT P6SM BKN250
     FM201200 06006KT P6SM -SHRA SCT070 BKN150
     FM201700 04007KT 5SM -SHRA BR SCT025 OVC050
     FM202100 01008KT 5SM BR BKN010 OVC020
     FM210000 36006KT 3SM BR OVC009=

USA.gov is the U.S. government's official web portal to all federal, state and local government web resources and services.